Par, United Kingdom
Current Conditions -  °F | °C
As of 3:20 PM on Friday 24 Oct 2014 (Local Time) from EGHQ Reporting Station
Scattered Clouds Scattered Clouds  
Wind Chill: 55°   Ceiling: Unl
Heat Index: 55°   Visibility: 6mi
Dew Point: 52°   Wind: 10mph
Humidity: 88%   Direction: 290°WNW
Pressure: 29.97"   Gusts: NA
Location:  50.35°N, 4.71°W
Report Text: EGHQ 241420Z 29009KT 9999 FEW030 SCT045 13/11 Q1015
Loading
Personal Weather Stations






























Interactive Weather Map
Tropical Storm Tracking
New forecast layout! Learn more

10-Day Weather Forecast

Advertisements
Track Severe Weather on mobile